Time;durP1;ratioP1;P1;durP2;ratioP2;P2;SDS_P1;SDS_P2;PMS_P1;PMS_P2;Temp;Humidity;BMP_temperature;BMP_pressure;BME280_temperature;BME280_humidity;BME280_pressure;Samples;Min_cycle;Max_cycle;Signal;HPM_P1;HPM_P2
2021/07/18 00:02:00;;;;;;;3.23;2.03;;;18.50;99.90;;;;;;4134979;28;20201;-81
2021/07/18 00:04:02;;;;;;;4.80;2.50;;;18.50;99.90;;;;;;4135966;28;20295;-81
2021/07/18 00:06:04;;;;;;;5.23;2.03;;;18.50;99.90;;;;;;4130262;28;20258;-81
2021/07/18 00:08:06;;;;;;;6.03;2.33;;;18.40;99.90;;;;;;4134897;28;20266;-81
2021/07/18 00:10:09;;;;;;;5.80;2.43;;;18.40;99.90;;;;;;4136242;28;20242;-81
2021/07/18 00:12:11;;;;;;;8.53;2.40;;;18.40;99.90;;;;;;4137712;28;20219;-81
2021/07/18 00:14:13;;;;;;;6.67;2.57;;;18.30;99.90;;;;;;4137028;28;20220;-81
2021/07/18 00:16:16;;;;;;;6.93;2.67;;;18.30;99.90;;;;;;4137459;28;20216;-81
2021/07/18 00:18:19;;;;;;;6.77;2.73;;;18.30;99.90;;;;;;4138397;28;20248;-81
2021/07/18 00:20:20;;;;;;;7.10;2.50;;;18.20;99.90;;;;;;4138505;28;20240;-81
2021/07/18 00:22:22;;;;;;;4.70;2.43;;;18.20;99.90;;;;;;4138096;28;20673;-81
2021/07/18 00:24:24;;;;;;;3.67;2.30;;;18.20;99.90;;;;;;4144713;28;20239;-81
2021/07/18 00:26:29;;;;;;;4.10;2.53;;;18.20;99.90;;;;;;4146816;28;20311;-81
2021/07/18 00:28:31;;;;;;;6.70;2.67;;;18.20;99.90;;;;;;4143547;28;20279;-81
2021/07/18 00:30:33;;;;;;;4.10;2.73;;;18.10;99.90;;;;;;4138162;28;20256;-81
2021/07/18 00:32:36;;;;;;;4.97;2.63;;;18.10;99.90;;;;;;4137460;28;20205;-82
2021/07/18 00:34:38;;;;;;;4.87;2.60;;;18.10;99.90;;;;;;4138132;28;20693;-81
2021/07/18 00:36:40;;;;;;;3.63;2.30;;;18.10;99.90;;;;;;4137612;28;20702;-81
2021/07/18 00:38:42;;;;;;;6.40;2.83;;;18.00;99.90;;;;;;4134897;28;20692;-81
2021/07/18 00:40:44;;;;;;;6.00;2.90;;;18.00;99.90;;;;;;4128492;28;20237;-81
2021/07/18 00:42:46;;;;;;;4.33;2.60;;;18.00;99.90;;;;;;4138889;28;20215;-81
2021/07/18 00:44:48;;;;;;;5.47;2.57;;;17.90;99.90;;;;;;4140241;28;20213;-81
2021/07/18 00:46:50;;;;;;;5.87;2.90;;;17.90;99.90;;;;;;4138310;28;20564;-81
2021/07/18 00:48:53;;;;;;;6.63;2.70;;;17.90;99.90;;;;;;4125804;28;20276;-81
2021/07/18 00:50:56;;;;;;;5.73;2.83;;;17.90;99.90;;;;;;4126102;28;20241;-81
2021/07/18 00:53:00;;;;;;;5.93;3.00;;;17.80;99.90;;;;;;4136352;28;20222;-81
2021/07/18 00:55:05;;;;;;;10.43;3.20;;;17.80;99.90;;;;;;4140611;28;20208;-81
2021/07/18 00:57:07;;;;;;;5.13;2.97;;;17.70;99.90;;;;;;4124782;28;20217;-81
2021/07/18 00:59:10;;;;;;;7.60;2.87;;;17.70;99.90;;;;;;4150492;28;20212;-82
2021/07/18 01:01:12;;;;;;;4.93;2.50;;;17.70;99.90;;;;;;4144841;28;20255;-81
2021/07/18 01:03:14;;;;;;;5.60;3.10;;;17.60;99.90;;;;;;4139133;28;20205;-81
2021/07/18 01:05:17;;;;;;;5.13;3.00;;;17.60;99.90;;;;;;4140080;28;20208;-81
2021/07/18 01:07:19;;;;;;;5.97;3.10;;;17.60;99.90;;;;;;4140061;28;20208;-81
2021/07/18 01:09:21;;;;;;;6.33;2.70;;;17.60;99.90;;;;;;4139692;28;20218;-81
2021/07/18 01:11:24;;;;;;;6.50;2.90;;;17.50;99.90;;;;;;4140103;28;20204;-82
2021/07/18 01:13:26;;;;;;;6.23;2.87;;;17.50;99.90;;;;;;4133814;28;20613;-81
2021/07/18 01:15:28;;;;;;;5.67;2.87;;;17.40;99.90;;;;;;4127319;28;20201;-81
2021/07/18 01:17:31;;;;;;;4.93;2.77;;;17.50;99.90;;;;;;4138403;28;20267;-81
2021/07/18 01:19:34;;;;;;;6.13;2.90;;;17.40;99.90;;;;;;4140087;28;20236;-81
2021/07/18 01:21:40;;;;;;;6.43;2.73;;;17.40;99.90;;;;;;4140612;28;20652;-81
2021/07/18 01:23:43;;;;;;;7.07;2.77;;;17.40;99.90;;;;;;4139618;28;20658;-81
2021/07/18 01:25:48;;;;;;;5.43;2.50;;;17.30;99.90;;;;;;4143570;28;20212;-81
2021/07/18 01:27:50;;;;;;;5.10;2.50;;;17.30;99.90;;;;;;4144803;28;20216;-81
2021/07/18 01:29:53;;;;;;;4.50;2.80;;;17.30;99.90;;;;;;4146037;28;20239;-81
2021/07/18 01:31:55;;;;;;;4.20;2.80;;;17.30;99.90;;;;;;4132162;28;20217;-81
2021/07/18 01:33:57;;;;;;;5.93;2.83;;;17.20;99.90;;;;;;4147149;28;20223;-81
2021/07/18 01:35:58;;;;;;;4.90;2.40;;;17.20;99.90;;;;;;4145648;28;20219;-81
2021/07/18 01:38:01;;;;;;;4.27;2.70;;;17.20;99.90;;;;;;4146584;28;20212;-81
2021/07/18 01:40:06;;;;;;;5.37;2.40;;;17.10;99.90;;;;;;4142016;28;20243;-81
2021/07/18 01:42:08;;;;;;;3.73;2.33;;;17.10;99.90;;;;;;4145243;28;20224;-82
2021/07/18 01:44:16;;;;;;;5.63;2.73;;;17.10;99.90;;;;;;4146103;28;20232;-81
2021/07/18 01:46:18;;;;;;;8.83;3.00;;;17.00;99.90;;;;;;4147064;28;20278;-81
2021/07/18 01:48:20;;;;;;;5.33;2.63;;;17.00;99.90;;;;;;4130988;28;20213;-81
2021/07/18 01:50:22;;;;;;;7.03;2.67;;;17.00;99.90;;;;;;4123795;28;20264;-81
2021/07/18 01:52:24;;;;;;;4.40;2.53;;;17.10;99.90;;;;;;4137733;28;20212;-81
2021/07/18 01:54:26;;;;;;;5.23;2.50;;;16.90;99.90;;;;;;4138023;28;20214;-81
2021/07/18 01:56:30;;;;;;;5.07;2.70;;;16.90;99.90;;;;;;4135827;28;20212;-81
2021/07/18 01:58:32;;;;;;;6.20;2.23;;;16.80;99.90;;;;;;4138568;28;20247;-81
2021/07/18 02:00:34;;;;;;;5.97;2.70;;;16.80;99.90;;;;;;4138989;28;20220;-81
2021/07/18 02:02:37;;;;;;;4.60;2.50;;;16.80;99.90;;;;;;4139097;28;20226;-81
2021/07/18 02:04:39;;;;;;;5.50;2.73;;;16.70;99.90;;;;;;4137230;28;20222;-81
2021/07/18 02:06:41;;;;;;;3.90;2.30;;;16.80;99.90;;;;;;4138476;28;20632;-81
2021/07/18 02:08:43;;;;;;;4.10;2.33;;;16.70;99.90;;;;;;4137230;28;20219;-81
2021/07/18 02:10:45;;;;;;;7.70;2.60;;;16.70;99.90;;;;;;4138667;28;20596;-81
2021/07/18 02:12:49;;;;;;;4.43;2.37;;;16.60;99.90;;;;;;4138077;28;20211;-80
2021/07/18 02:14:51;;;;;;;4.07;2.50;;;16.60;99.90;;;;;;4133240;28;20581;-80
2021/07/18 02:16:53;;;;;;;7.60;2.47;;;16.60;99.90;;;;;;4137081;28;20676;-80
2021/07/18 02:18:59;;;;;;;5.07;2.37;;;16.50;99.90;;;;;;4136961;28;20631;-80
2021/07/18 02:21:00;;;;;;;4.10;2.27;;;16.50;99.90;;;;;;4139566;28;20602;-80
2021/07/18 02:23:02;;;;;;;6.93;2.43;;;16.50;99.90;;;;;;4130724;28;20219;-80
2021/07/18 02:25:05;;;;;;;6.60;2.90;;;16.40;99.90;;;;;;4140605;28;20743;-80
2021/07/18 02:27:07;;;;;;;3.43;2.50;;;16.40;99.90;;;;;;4144855;28;20280;-80
2021/07/18 02:29:11;;;;;;;5.43;2.70;;;16.40;99.90;;;;;;4139231;28;20237;-79
2021/07/18 02:31:12;;;;;;;5.33;2.53;;;16.30;99.90;;;;;;4135434;28;20270;-80
2021/07/18 02:33:14;;;;;;;6.70;2.50;;;16.30;99.90;;;;;;4135817;28;20680;-80
2021/07/18 02:35:17;;;;;;;4.87;2.30;;;16.30;99.90;;;;;;4137879;28;20686;-80
2021/07/18 02:37:19;;;;;;;3.80;2.17;;;16.30;99.90;;;;;;4136585;28;20216;-80
2021/07/18 02:39:21;;;;;;;6.30;2.43;;;16.20;99.90;;;;;;4137911;28;20220;-80
2021/07/18 02:41:23;;;;;;;4.00;2.23;;;16.20;99.90;;;;;;4133992;28;20266;-80
2021/07/18 02:43:25;;;;;;;5.13;2.10;;;16.10;99.90;;;;;;4137461;28;20209;-80
2021/07/18 02:45:30;;;;;;;4.00;2.27;;;16.10;99.90;;;;;;4138924;28;20250;-80
2021/07/18 02:47:32;;;;;;;6.10;2.43;;;16.10;99.90;;;;;;4134300;28;20723;-80
2021/07/18 02:49:34;;;;;;;4.00;2.13;;;16.00;99.90;;;;;;4133531;28;20294;-79
2021/07/18 02:51:35;;;;;;;4.57;2.37;;;16.00;99.90;;;;;;4139929;28;20771;-80
2021/07/18 02:53:37;;;;;;;4.87;2.30;;;16.00;99.90;;;;;;4140427;28;20286;-80
2021/07/18 02:55:39;;;;;;;4.93;2.27;;;15.90;99.90;;;;;;4142653;28;20238;-80
2021/07/18 02:57:41;;;;;;;3.63;2.20;;;15.90;99.90;;;;;;4142932;28;20208;-80
2021/07/18 02:59:43;;;;;;;4.23;2.80;;;15.80;99.90;;;;;;4135898;28;20269;-80
2021/07/18 03:01:46;;;;;;;3.00;2.03;;;15.80;99.90;;;;;;4145276;28;20707;-80
2021/07/18 03:03:51;;;;;;;3.40;2.23;;;15.80;99.90;;;;;;4143349;28;20214;-80
2021/07/18 03:05:53;;;;;;;4.53;2.00;;;15.80;99.90;;;;;;4142669;28;20211;-80
2021/07/18 03:07:57;;;;;;;3.20;2.40;;;15.80;99.90;;;;;;4141701;28;20593;-80
2021/07/18 03:09:59;;;;;;;4.93;2.57;;;15.80;99.90;;;;;;4142043;28;20234;-80
2021/07/18 03:12:01;;;;;;;4.30;2.20;;;15.70;99.90;;;;;;4140087;28;20219;-80
2021/07/18 03:14:03;;;;;;;3.23;2.23;;;15.70;99.90;;;;;;4139943;28;20246;-80
2021/07/18 03:16:08;;;;;;;4.87;2.40;;;15.70;99.90;;;;;;4123698;28;20222;-80
2021/07/18 03:18:11;;;;;;;4.07;2.40;;;15.70;99.90;;;;;;4135579;28;20218;-80
2021/07/18 03:20:15;;;;;;;3.23;2.40;;;15.60;99.90;;;;;;4138139;28;20238;-79
2021/07/18 03:22:17;;;;;;;3.90;2.30;;;15.60;99.90;;;;;;4137385;28;20238;-80
2021/07/18 03:24:19;;;;;;;3.40;2.17;;;15.60;99.90;;;;;;4133242;28;20210;-79
2021/07/18 03:26:21;;;;;;;4.07;2.50;;;15.60;99.90;;;;;;4138806;28;20206;-80
2021/07/18 03:28:23;;;;;;;3.37;2.10;;;15.60;99.90;;;;;;4138843;28;20658;-79
2021/07/18 03:30:25;;;;;;;3.43;2.00;;;15.60;99.90;;;;;;4138420;28;20237;-79
2021/07/18 03:32:26;;;;;;;3.03;1.70;;;15.60;99.90;;;;;;4140466;28;20217;-80
2021/07/18 03:34:29;;;;;;;4.63;2.37;;;15.60;99.90;;;;;;4139389;28;20237;-79
2021/07/18 03:36:33;;;;;;;5.83;2.27;;;15.50;99.90;;;;;;4139857;28;20554;-80
2021/07/18 03:38:35;;;;;;;5.87;2.40;;;15.50;99.90;;;;;;4138103;28;20225;-79
2021/07/18 03:40:37;;;;;;;5.37;2.60;;;15.50;99.90;;;;;;4137422;28;20237;-80
2021/07/18 03:42:39;;;;;;;4.27;2.40;;;15.50;99.90;;;;;;4137453;28;20272;-79
2021/07/18 03:44:41;;;;;;;5.10;2.47;;;15.50;99.90;;;;;;4137509;28;20606;-80
2021/07/18 03:46:43;;;;;;;3.93;2.10;;;15.40;99.90;;;;;;4136784;28;20610;-79
2021/07/18 03:48:45;;;;;;;4.27;2.40;;;15.40;99.90;;;;;;4131555;28;20222;-80
2021/07/18 03:50:49;;;;;;;4.27;2.27;;;15.40;99.90;;;;;;4128417;28;20246;-80
2021/07/18 03:52:51;;;;;;;5.20;2.40;;;15.40;99.90;;;;;;4135288;28;20244;-80
2021/07/18 03:54:53;;;;;;;6.57;2.73;;;15.40;99.90;;;;;;4133930;28;20297;-80
2021/07/18 03:56:55;;;;;;;3.77;2.33;;;15.40;99.90;;;;;;4135534;28;20212;-80
2021/07/18 03:58:56;;;;;;;7.57;3.00;;;15.40;99.90;;;;;;4134832;28;20210;-80
2021/07/18 04:00:58;;;;;;;4.60;2.70;;;15.10;99.90;;;;;;4134987;28;20226;-80
2021/07/18 04:03:00;;;;;;;5.43;2.30;;;15.40;99.90;;;;;;4135968;28;20301;-80
2021/07/18 04:05:01;;;;;;;4.73;2.63;;;15.40;99.90;;;;;;4130041;28;20210;-80
2021/07/18 04:07:05;;;;;;;4.50;2.53;;;15.40;99.90;;;;;;4133410;28;20214;-80
2021/07/18 04:09:07;;;;;;;3.77;2.60;;;15.40;99.90;;;;;;4130494;28;20210;-80
2021/07/18 04:11:09;;;;;;;5.83;2.47;;;15.40;99.90;;;;;;4135051;28;20209;-80
2021/07/18 04:13:11;;;;;;;5.30;2.40;;;15.40;99.90;;;;;;4134848;28;20205;-80
2021/07/18 04:15:14;;;;;;;6.70;2.40;;;15.30;99.90;;;;;;4136463;28;20216;-80
2021/07/18 04:17:15;;;;;;;4.83;2.63;;;15.40;99.90;;;;;;4120615;28;20433;-80
2021/07/18 04:19:17;;;;;;;5.90;2.50;;;15.40;99.90;;;;;;4129960;28;20211;-80
2021/07/18 04:21:20;;;;;;;3.30;2.50;;;15.40;99.90;;;;;;4136889;28;20209;-80
2021/07/18 04:23:23;;;;;;;4.60;2.73;;;15.40;99.90;;;;;;4134102;28;20222;-80
2021/07/18 04:25:25;;;;;;;4.50;2.47;;;15.40;99.90;;;;;;4131881;28;20286;-80
2021/07/18 04:27:27;;;;;;;6.60;2.90;;;15.40;99.90;;;;;;4138588;28;20213;-80
2021/07/18 04:29:29;;;;;;;3.97;2.70;;;15.40;99.90;;;;;;4137783;28;20238;-80
2021/07/18 04:31:31;;;;;;;5.80;2.73;;;15.40;99.90;;;;;;4136733;28;20257;-80
2021/07/18 04:33:33;;;;;;;7.03;2.73;;;15.40;99.90;;;;;;4134330;28;20302;-80
2021/07/18 04:35:35;;;;;;;7.30;2.97;;;15.40;99.90;;;;;;4136932;28;20226;-80
2021/07/18 04:37:37;;;;;;;6.77;2.90;;;15.40;99.90;;;;;;4138400;28;20280;-80
2021/07/18 04:39:43;;;;;;;4.67;2.60;;;15.40;99.90;;;;;;4137239;28;20776;-80
2021/07/18 04:41:45;;;;;;;5.27;2.97;;;15.40;99.90;;;;;;4132683;28;20234;-80
2021/07/18 04:43:47;;;;;;;4.53;2.80;;;15.40;99.90;;;;;;4137106;28;20690;-80
2021/07/18 04:45:49;;;;;;;5.60;2.53;;;15.40;99.90;;;;;;4137136;28;20210;-80
2021/07/18 04:47:53;;;;;;;4.47;2.90;;;15.40;99.90;;;;;;4141461;28;20565;-80
2021/07/18 04:49:55;;;;;;;6.67;3.10;;;15.50;99.90;;;;;;4128535;28;20730;-80
2021/07/18 04:51:57;;;;;;;6.70;3.33;;;15.50;99.90;;;;;;4137720;28;20704;-80
2021/07/18 04:53:59;;;;;;;10.60;3.40;;;15.50;99.90;;;;;;4139667;28;20808;-80
2021/07/18 04:56:02;;;;;;;4.97;3.33;;;15.60;99.90;;;;;;4139067;28;20574;-80
2021/07/18 04:58:04;;;;;;;7.10;3.17;;;15.70;99.90;;;;;;4129304;28;20644;-80
2021/07/18 05:00:07;;;;;;;6.50;3.37;;;15.60;99.90;;;;;;4124431;28;20226;-80
2021/07/18 05:02:11;;;;;;;5.50;3.17;;;15.60;99.90;;;;;;4136958;28;20226;-80
2021/07/18 05:04:13;;;;;;;6.37;3.53;;;15.50;99.90;;;;;;4140148;28;20206;-80
2021/07/18 05:06:15;;;;;;;6.77;3.17;;;15.60;99.90;;;;;;4125884;28;20242;-80
2021/07/18 05:08:17;;;;;;;6.77;3.40;;;15.60;99.90;;;;;;4140634;28;20257;-80
2021/07/18 05:10:19;;;;;;;4.87;3.03;;;15.60;99.90;;;;;;4139617;28;20609;-80
2021/07/18 05:12:22;;;;;;;7.70;3.50;;;15.70;99.90;;;;;;4139556;28;20210;-80
2021/07/18 05:14:24;;;;;;;7.03;3.80;;;15.70;99.90;;;;;;4137681;28;20224;-80
2021/07/18 05:16:26;;;;;;;5.47;3.13;;;15.70;99.90;;;;;;4139691;28;20211;-80
2021/07/18 05:18:28;;;;;;;7.53;3.53;;;15.70;99.90;;;;;;4141461;28;20207;-80
2021/07/18 05:20:30;;;;;;;8.13;4.00;;;16.30;99.90;;;;;;4139838;28;20293;-80
2021/07/18 05:22:32;;;;;;;8.60;4.80;;;15.80;99.90;;;;;;4140040;28;20227;-80
2021/07/18 05:24:34;;;;;;;8.97;3.77;;;15.90;99.90;;;;;;4140015;28;20214;-80
2021/07/18 05:26:36;;;;;;;5.30;3.70;;;15.90;99.90;;;;;;4139325;28;20233;-81
2021/07/18 05:28:42;;;;;;;6.37;3.80;;;16.00;99.90;;;;;;4141780;28;20640;-80
2021/07/18 05:30:43;;;;;;;9.10;3.97;;;16.10;99.90;;;;;;4140452;28;20234;-80
2021/07/18 05:32:45;;;;;;;7.47;4.47;;;16.20;99.90;;;;;;4139699;28;20223;-80
2021/07/18 05:34:47;;;;;;;10.23;4.10;;;16.20;99.90;;;;;;4130239;28;20215;-80
2021/07/18 05:36:49;;;;;;;10.67;4.50;;;16.30;99.90;;;;;;4142511;28;20201;-80
2021/07/18 05:38:51;;;;;;;9.53;4.30;;;16.50;99.90;;;;;;4143632;28;20610;-81
2021/07/18 05:40:52;;;;;;;6.70;4.17;;;16.40;99.90;;;;;;4127260;28;20755;-80
2021/07/18 05:42:54;;;;;;;7.87;4.00;;;16.50;99.90;;;;;;4132106;28;20243;-80
2021/07/18 05:44:58;;;;;;;6.97;3.90;;;16.50;99.90;;;;;;4143092;28;20662;-81
2021/07/18 05:47:00;;;;;;;7.57;4.03;;;16.60;99.90;;;;;;4147586;28;20208;-80
2021/07/18 05:49:01;;;;;;;8.37;4.03;;;16.70;99.90;;;;;;4148529;28;20263;-81
2021/07/18 05:51:03;;;;;;;8.23;3.93;;;16.70;99.90;;;;;;4156212;23;20620;-76
2021/07/18 05:53:05;;;;;;;11.07;4.33;;;16.70;99.90;;;;;;4149414;28;20207;-76
2021/07/18 05:55:08;;;;;;;11.67;4.67;;;16.80;99.90;;;;;;4157215;28;20207;-76
2021/07/18 05:57:10;;;;;;;6.40;4.50;;;16.80;99.90;;;;;;4150427;28;20211;-76
2021/07/18 05:59:12;;;;;;;8.77;4.87;;;16.80;99.90;;;;;;4148589;28;20222;-76
2021/07/18 06:01:15;;;;;;;9.30;4.90;;;16.90;99.90;;;;;;4143833;28;20232;-76
2021/07/18 06:03:17;;;;;;;8.20;5.00;;;16.90;99.90;;;;;;4147766;28;20754;-76
2021/07/18 06:05:19;;;;;;;7.27;5.10;;;17.00;99.90;;;;;;4149506;28;20212;-76
2021/07/18 06:07:20;;;;;;;8.87;5.97;;;17.00;99.90;;;;;;4148993;28;20215;-76
2021/07/18 06:09:22;;;;;;;8.10;5.10;;;17.10;99.90;;;;;;4145742;28;20278;-76
2021/07/18 06:11:26;;;;;;;7.00;5.70;;;17.20;99.90;;;;;;4148960;28;20208;-76
2021/07/18 06:13:27;;;;;;;10.23;5.40;;;17.20;99.90;;;;;;4149119;28;20739;-76
2021/07/18 06:15:29;;;;;;;8.90;5.70;;;17.30;99.90;;;;;;4160805;28;20254;-76
2021/07/18 06:17:37;;;;;;;8.57;5.40;;;17.30;99.90;;;;;;4147148;28;20686;-76
2021/07/18 06:19:39;;;;;;;8.87;5.60;;;17.30;99.90;;;;;;4144324;28;20214;-76
2021/07/18 06:21:41;;;;;;;9.77;5.67;;;17.40;99.90;;;;;;4147730;28;20629;-76
2021/07/18 06:23:43;;;;;;;10.70;5.80;;;17.50;99.90;;;;;;4148359;28;20645;-76
2021/07/18 06:25:44;;;;;;;10.73;5.47;;;17.60;99.90;;;;;;4143925;28;20299;-76
2021/07/18 06:27:47;;;;;;;10.13;5.63;;;17.60;99.90;;;;;;4143316;28;20216;-76
2021/07/18 06:29:49;;;;;;;9.23;6.00;;;17.70;99.90;;;;;;4150736;28;20254;-76
2021/07/18 06:31:51;;;;;;;10.73;6.07;;;17.70;99.90;;;;;;4144466;28;20784;-76
2021/07/18 06:33:54;;;;;;;7.77;5.30;;;17.70;99.90;;;;;;4141111;28;20618;-76
2021/07/18 06:35:56;;;;;;;8.67;5.60;;;17.80;99.90;;;;;;4137438;28;20885;-76
2021/07/18 06:38:00;;;;;;;11.13;5.20;;;17.80;99.90;;;;;;4142613;28;20216;-76
2021/07/18 06:40:02;;;;;;;9.07;5.40;;;17.90;99.90;;;;;;4148676;28;20552;-76
2021/07/18 06:42:04;;;;;;;10.00;6.00;;;17.90;99.90;;;;;;4148091;28;20699;-76
2021/07/18 06:44:06;;;;;;;8.43;5.47;;;17.90;99.90;;;;;;4144774;28;20665;-76
2021/07/18 06:46:08;;;;;;;10.70;5.63;;;18.00;99.90;;;;;;4144755;28;20213;-76
2021/07/18 06:48:10;;;;;;;8.17;5.53;;;18.00;99.90;;;;;;4143134;28;20275;-76
2021/07/18 06:50:14;;;;;;;8.23;5.20;;;18.20;99.90;;;;;;4133816;28;21260;-76
2021/07/18 06:52:16;;;;;;;9.13;5.60;;;18.30;99.90;;;;;;4140470;28;20212;-76
2021/07/18 06:54:19;;;;;;;10.93;5.40;;;18.30;99.90;;;;;;4135552;28;20729;-76
2021/07/18 06:56:21;;;;;;;9.10;5.37;;;18.40;99.90;;;;;;4140105;28;20204;-76
2021/07/18 06:58:22;;;;;;;11.37;5.93;;;18.50;99.90;;;;;;4139634;28;20203;-76
2021/07/18 07:00:24;;;;;;;9.27;5.80;;;18.50;99.90;;;;;;4146054;28;20605;-76
2021/07/18 07:02:26;;;;;;;9.67;6.17;;;18.50;99.90;;;;;;4144311;28;20212;-76
2021/07/18 07:04:28;;;;;;;10.00;6.30;;;18.50;99.90;;;;;;4142640;28;20271;-76
2021/07/18 07:06:31;;;;;;;9.33;5.87;;;18.50;99.90;;;;;;4144583;28;20205;-76
2021/07/18 07:08:33;;;;;;;7.00;5.50;;;18.50;99.90;;;;;;4146252;28;20481;-76
2021/07/18 07:10:35;;;;;;;7.30;5.50;;;18.60;99.90;;;;;;4143638;28;20661;-76
2021/07/18 07:12:37;;;;;;;7.33;5.70;;;18.60;99.90;;;;;;4145264;28;20216;-76
2021/07/18 07:14:38;;;;;;;10.17;5.87;;;18.70;99.90;;;;;;4139847;28;20221;-76
2021/07/18 07:16:40;;;;;;;8.83;5.60;;;18.70;99.90;;;;;;4144317;28;20264;-76
2021/07/18 07:18:42;;;;;;;9.13;5.73;;;18.80;99.90;;;;;;4140455;28;20608;-76
2021/07/18 07:20:44;;;;;;;13.03;5.70;;;18.80;99.90;;;;;;4139207;28;20325;-77
2021/07/18 07:22:47;;;;;;;9.20;5.97;;;18.90;99.90;;;;;;4141615;28;20238;-77
2021/07/18 07:24:50;;;;;;;9.70;5.53;;;19.00;99.90;;;;;;4141878;28;20218;-76
2021/07/18 07:26:52;;;;;;;8.27;5.07;;;19.00;99.90;;;;;;4142436;28;20621;-76
2021/07/18 07:28:54;;;;;;;7.33;5.17;;;19.10;99.90;;;;;;4143112;28;20615;-76
2021/07/18 07:30:56;;;;;;;8.03;5.20;;;19.20;99.90;;;;;;4144281;28;20231;-76
2021/07/18 07:32:58;;;;;;;10.27;5.30;;;19.20;99.90;;;;;;4143841;28;20688;-76
2021/07/18 07:35:00;;;;;;;7.33;4.77;;;19.30;99.90;;;;;;4143918;28;20303;-79
2021/07/18 07:37:02;;;;;;;6.53;4.50;;;19.30;99.90;;;;;;4141946;28;20263;-79
2021/07/18 07:39:05;;;;;;;7.40;4.90;;;19.40;99.90;;;;;;4143006;28;20217;-83
2021/07/18 07:41:07;;;;;;;6.50;5.00;;;19.50;99.90;;;;;;4143078;28;20234;-81
2021/07/18 07:43:09;;;;;;;9.13;4.63;;;19.60;99.90;;;;;;4143185;28;20237;-79
2021/07/18 07:45:12;;;;;;;7.73;4.70;;;19.70;99.90;;;;;;4140579;28;20579;-77
2021/07/18 07:47:14;;;;;;;7.90;5.30;;;19.80;99.90;;;;;;4132464;28;20677;-77
2021/07/18 07:49:16;;;;;;;10.80;4.57;;;19.80;99.90;;;;;;4133344;28;20215;-77
2021/07/18 07:51:18;;;;;;;7.33;4.40;;;19.90;99.90;;;;;;4137692;28;20289;-75
2021/07/18 07:53:19;;;;;;;7.00;4.67;;;20.00;99.90;;;;;;4129666;28;20235;-75
2021/07/18 07:55:23;;;;;;;8.93;4.53;;;20.10;99.90;;;;;;4135093;28;20258;-77
2021/07/18 07:57:25;;;;;;;8.37;4.60;;;20.10;99.90;;;;;;4142018;28;20219;-75
2021/07/18 07:59:26;;;;;;;7.67;4.40;;;20.20;99.90;;;;;;4143165;28;20281;-79
2021/07/18 08:01:28;;;;;;;7.07;4.50;;;20.20;99.90;;;;;;4140808;28;20692;-77
2021/07/18 08:03:30;;;;;;;7.97;4.30;;;20.30;99.90;;;;;;4141379;28;20302;-77
2021/07/18 08:05:32;;;;;;;6.73;4.57;;;20.30;99.90;;;;;;4134525;28;20208;-76
2021/07/18 08:07:34;;;;;;;8.07;4.47;;;20.40;99.90;;;;;;4135766;28;20212;-76
2021/07/18 08:09:36;;;;;;;6.20;4.60;;;20.40;99.90;;;;;;4135446;28;20271;-76
2021/07/18 08:11:39;;;;;;;9.00;4.83;;;20.40;99.90;;;;;;4141492;28;20208;-78
2021/07/18 08:13:41;;;;;;;7.57;4.60;;;20.50;99.90;;;;;;4135842;28;20207;-77
2021/07/18 08:15:43;;;;;;;8.77;4.67;;;20.40;99.90;;;;;;4138121;28;20991;-77
2021/07/18 08:17:45;;;;;;;8.97;5.10;;;20.40;99.90;;;;;;4139942;28;20219;-77
2021/07/18 08:19:47;;;;;;;6.40;4.47;;;20.30;99.90;;;;;;4141481;28;20238;-77
2021/07/18 08:21:49;;;;;;;7.77;5.00;;;20.20;99.90;;;;;;4138052;28;20595;-78
2021/07/18 08:23:51;;;;;;;6.60;4.90;;;20.30;99.90;;;;;;4136913;28;20235;-77
2021/07/18 08:25:52;;;;;;;8.77;5.17;;;20.30;99.90;;;;;;4137736;28;20221;-77
2021/07/18 08:27:56;;;;;;;6.60;4.53;;;20.30;99.90;;;;;;4126537;28;20676;-75
2021/07/18 08:29:58;;;;;;;7.43;4.40;;;20.20;99.90;;;;;;4128170;28;20601;-76
2021/07/18 08:32:00;;;;;;;7.27;4.40;;;20.30;99.90;;;;;;4136770;28;20227;-76
2021/07/18 08:34:02;;;;;;;7.07;4.43;;;20.30;99.90;;;;;;4136722;28;20216;-77
2021/07/18 08:36:04;;;;;;;6.23;4.23;;;20.30;99.90;;;;;;4139306;28;20216;-76
2021/07/18 08:38:06;;;;;;;7.57;4.30;;;20.30;99.90;;;;;;4134548;28;20210;-79
2021/07/18 08:40:13;;;;;;;9.33;4.43;;;20.30;99.90;;;;;;4138438;28;20228;-78
2021/07/18 08:42:16;;;;;;;7.47;4.17;;;20.30;99.90;;;;;;4139282;28;20209;-80
2021/07/18 08:44:19;;;;;;;7.63;4.20;;;20.30;99.90;;;;;;4153049;28;20638;-80
2021/07/18 08:46:21;;;;;;;5.60;3.93;;;20.30;99.90;;;;;;4146541;28;20214;-80
2021/07/18 08:48:23;;;;;;;5.17;3.90;;;20.40;99.90;;;;;;4148033;28;20211;-80
2021/07/18 08:50:25;;;;;;;7.47;3.90;;;20.40;99.90;;;;;;4146477;28;20246;-79
2021/07/18 08:52:27;;;;;;;6.77;4.07;;;20.50;99.90;;;;;;4146249;28;20217;-80
2021/07/18 08:54:30;;;;;;;7.03;3.67;;;20.60;99.90;;;;;;4147267;28;20314;-82
2021/07/18 08:56:33;;;;;;;4.77;3.37;;;20.60;99.90;;;;;;4148969;28;20234;-80
2021/07/18 08:58:35;;;;;;;6.27;3.83;;;20.70;99.90;;;;;;4146555;28;20262;-79
2021/07/18 09:00:38;;;;;;;5.90;3.67;;;20.70;99.90;;;;;;4146047;28;20290;-79
2021/07/18 09:02:40;;;;;;;5.57;3.80;;;20.80;99.90;;;;;;4141620;28;20257;-80
2021/07/18 09:04:42;;;;;;;7.87;3.73;;;20.80;99.90;;;;;;4140688;28;20251;-77
2021/07/18 09:06:46;;;;;;;6.43;3.40;;;20.90;99.90;;;;;;4135033;28;20243;-76
2021/07/18 09:08:49;;;;;;;5.40;3.30;;;21.00;99.90;;;;;;4136695;28;20674;-78
2021/07/18 09:10:52;;;;;;;6.20;3.10;;;21.30;99.90;;;;;;4129725;28;20336;-78
2021/07/18 09:13:08;;;;;;;5.73;2.90;;;21.20;99.90;;;;;;4134335;28;20710;-79
2021/07/18 09:15:10;;;;;;;4.20;3.00;;;21.30;99.90;;;;;;4141886;28;20642;-78
2021/07/18 09:17:15;;;;;;;4.40;2.97;;;21.30;99.90;;;;;;4127738;28;20221;-78
2021/07/18 09:19:20;;;;;;;6.60;3.20;;;21.40;99.90;;;;;;4137102;28;20621;-78
2021/07/18 09:21:22;;;;;;;5.80;3.10;;;21.40;99.90;;;;;;4143559;28;20219;-78
2021/07/18 09:23:25;;;;;;;4.23;2.73;;;21.50;99.90;;;;;;4138250;28;20243;-77
2021/07/18 09:25:27;;;;;;;6.83;3.47;;;21.50;99.90;;;;;;4138994;28;20218;-78
2021/07/18 09:27:31;;;;;;;5.13;2.97;;;21.50;99.90;;;;;;4142821;28;20223;-78
2021/07/18 09:29:32;;;;;;;4.27;3.10;;;21.60;99.90;;;;;;4144638;28;20213;-78
2021/07/18 09:31:38;;;;;;;4.47;2.80;;;21.70;99.90;;;;;;4139679;28;20641;-78
2021/07/18 09:33:41;;;;;;;5.23;3.00;;;21.70;99.90;;;;;;4136776;28;20693;-78
2021/07/18 09:35:42;;;;;;;4.87;3.00;;;21.70;99.90;;;;;;4134484;28;20249;-79
2021/07/18 09:37:46;;;;;;;4.87;2.83;;;21.80;99.90;;;;;;4130765;28;20218;-78
2021/07/18 09:39:52;;;;;;;7.27;3.30;;;21.80;99.90;;;;;;4145760;28;20706;-78
2021/07/18 09:41:57;;;;;;;4.73;2.67;;;21.90;99.90;;;;;;4143618;28;20210;-78
2021/07/18 09:43:59;;;;;;;4.97;3.03;;;22.00;99.90;;;;;;4138220;28;20315;-78
2021/07/18 09:46:06;;;;;;;5.03;2.80;;;22.00;99.90;;;;;;4147276;28;20205;-78
2021/07/18 09:48:10;;;;;;;3.90;3.10;;;22.10;99.90;;;;;;4147982;28;20589;-77
2021/07/18 09:50:18;;;;;;;4.97;3.03;;;22.20;99.90;;;;;;4157019;28;20271;-76
2021/07/18 09:52:22;;;;;;;6.13;2.40;;;22.20;99.90;;;;;;4149121;28;20291;-76
2021/07/18 09:54:32;;;;;;;3.80;2.70;;;22.30;99.90;;;;;;4143009;28;20273;-75
2021/07/18 09:56:33;;;;;;;5.10;2.83;;;22.30;99.90;;;;;;4142891;28;20275;-77
2021/07/18 09:58:37;;;;;;;4.77;2.80;;;22.40;99.90;;;;;;4145910;28;20210;-77
2021/07/18 10:00:42;;;;;;;4.37;2.97;;;22.40;99.90;;;;;;4145004;28;20243;-76
2021/07/18 10:02:45;;;;;;;3.13;2.47;;;22.50;99.90;;;;;;4142728;28;20247;-76
2021/07/18 10:04:47;;;;;;;4.67;2.50;;;22.60;99.90;;;;;;4145198;28;20261;-77
2021/07/18 10:07:06;;;;;;;4.67;2.70;;;22.60;99.90;;;;;;4144489;28;20222;-76
2021/07/18 10:09:12;;;;;;;6.00;2.73;;;22.70;99.90;;;;;;4144573;28;20231;-78
2021/07/18 10:11:15;;;;;;;2.90;2.50;;;22.80;99.90;;;;;;4144138;28;20282;-77
2021/07/18 10:13:17;;;;;;;3.87;2.67;;;22.80;99.90;;;;;;4147362;28;20242;-77
2021/07/18 10:15:19;;;;;;;4.60;2.67;;;22.90;99.90;;;;;;4139812;28;20592;-76
2021/07/18 10:17:24;;;;;;;6.27;2.77;;;23.00;99.90;;;;;;4144158;28;20211;-75
2021/07/18 10:19:25;;;;;;;4.27;2.67;;;23.10;99.40;;;;;;4147661;28;20214;-74
2021/07/18 10:21:30;;;;;;;7.13;2.40;;;23.10;99.20;;;;;;4144893;28;20267;-77
2021/07/18 10:23:39;;;;;;;4.10;2.77;;;23.20;99.20;;;;;;4147323;28;20211;-80
2021/07/18 10:25:43;;;;;;;5.70;3.00;;;23.20;98.90;;;;;;4143631;28;20230;-78
2021/07/18 10:27:46;;;;;;;4.10;3.00;;;23.20;99.20;;;;;;4140323;28;20519;-79
2021/07/18 10:29:52;;;;;;;3.20;2.90;;;23.30;99.20;;;;;;4141974;28;20236;-78
2021/07/18 10:31:57;;;;;;;4.43;2.80;;;23.50;99.10;;;;;;4149031;28;20215;-79
2021/07/18 10:34:01;;;;;;;4.23;2.57;;;23.60;99.10;;;;;;4143133;28;20562;-78
2021/07/18 10:36:04;;;;;;;4.60;2.50;;;23.70;97.80;;;;;;4150846;28;20235;-78
2021/07/18 10:38:17;;;;;;;5.90;2.80;;;23.70;96.80;;;;;;4135046;28;20212;-78